首页
METAR-TAF:

METAR-TAF

机场 :

Kenora, 安大略省, 加拿大

纬度: 49-47N, 经度: 094-22W, 海拔: 407米

当前天气观测

该预报发布于25分钟前的04:00 UTC
风速5节,风向西北
温度 11°C
湿度 71%
气压 1014 hPa
能見度: 32.2公里
散云层高于6700英尺
多云层高于10000英尺

METAR: CYQK 280400Z 32005KT 20SM SCT067 BKN100 11/06 A2995 RMK AC3AC4 SLP152

时间: 23:25 (04:25 UTC)

预报

该预报发布于2小时和45分钟前的01:40 UTC
预报有效从28日的 02点(UTC)到 28日的 14点(UTC)
风速8节,风向
能見度: 10公里
散云层高于4000英尺
多云层高于8000英尺
短暂存在
从 28日的 02点(UTC)到 28日的 08点(UTC)
能見度: 10公里
多云层高于4000英尺
阴天层高于8000英尺
小阵雨
从 28日的 0800点(UTC)
风速6节,风向
能見度: 8.0公里
多云层高于1200英尺
阴天层高于6000英尺
小阵雨, 轻雾
短暂存在
从 28日的 08点(UTC)到 28日的 12点(UTC)
能見度: 10公里
散云层高于1200英尺
多云层高于6000英尺
从 28日的 1200点(UTC)
风速8节,风向
能見度: 8.0公里
阴天层高于800英尺
小阵雨, 轻雾
短暂存在
从 28日的 12点(UTC)到 28日的 14点(UTC)
能見度: 10公里
多云层高于1000英尺
阴天层高于4000英尺
几率 30%
从 28日的 12点(UTC)到 28日的 14点(UTC)
阴天层高于600英尺

TAF: CYQK 280140Z 2802/2814 35008KT P6SM SCT040 BKN080 TEMPO 2802/2808 P6SM -SHRA BKN040 OVC080 FM280800 35006KT 5SM -SHRA BR BKN012 OVC060 TEMPO 2808/2812 P6SM NSW SCT012 BKN060 FM281200 36008KT 5SM -SHRA BR OVC008 TEMPO 2812/2814 P6SM NSW BKN010 OVC040 PROB30 2812/2814 OVC006 RMK NXT FCST BY 280800Z

超过4000个机场的气象观测和天气预报(METAR&TAF报告)。

可查询的气象台以黄色和红色小点在地图上表示。

将鼠标移到小点上方,可查看气象台名称。

然后点击查看天气观测和预报。

如需切换地图:点击带黑十字的绿色按钮放大地图;点击带横线的绿色按钮缩小地图;或者点击绿色箭头查看邻近地区的地图。


METAR-TAF: